sensor_id;sensor_type;location;lat;lon;timestamp;P1;durP1;ratioP1;P2;durP2;ratioP2
16640;SDS011;8434;47.990;7.880;2024-03-23T00:53:04;6.53;;;1.70;;
16640;SDS011;8434;47.990;7.880;2024-03-23T00:55:48;1.87;;;1.50;;
16640;SDS011;8434;47.990;7.880;2024-03-23T00:58:34;3.47;;;1.43;;
16640;SDS011;8434;47.990;7.880;2024-03-23T01:01:19;2.37;;;1.50;;
16640;SDS011;8434;47.990;7.880;2024-03-23T01:04:04;2.60;;;1.70;;
16640;SDS011;8434;47.990;7.880;2024-03-23T01:06:49;2.30;;;1.70;;
16640;SDS011;8434;47.990;7.880;2024-03-23T01:09:36;3.43;;;1.77;;
16640;SDS011;8434;47.990;7.880;2024-03-23T01:12:22;3.50;;;1.40;;
16640;SDS011;8434;47.990;7.880;2024-03-23T01:15:08;8.20;;;2.47;;
16640;SDS011;8434;47.990;7.880;2024-03-23T01:17:53;4.07;;;1.53;;
16640;SDS011;8434;47.990;7.880;2024-03-23T01:20:38;2.80;;;1.63;;
16640;SDS011;8434;47.990;7.880;2024-03-23T01:23:23;5.30;;;1.70;;
16640;SDS011;8434;47.990;7.880;2024-03-23T01:26:10;4.33;;;1.73;;
16640;SDS011;8434;47.990;7.880;2024-03-23T01:28:54;1.90;;;1.43;;
16640;SDS011;8434;47.990;7.880;2024-03-23T01:31:40;2.00;;;1.53;;
16640;SDS011;8434;47.990;7.880;2024-03-23T01:34:24;2.50;;;1.70;;
16640;SDS011;8434;47.990;7.880;2024-03-23T01:37:10;3.50;;;1.70;;
16640;SDS011;8434;47.990;7.880;2024-03-23T01:39:55;2.70;;;1.87;;
16640;SDS011;8434;47.990;7.880;2024-03-23T01:42:42;1.87;;;1.60;;
16640;SDS011;8434;47.990;7.880;2024-03-23T01:45:26;1.67;;;1.40;;
16640;SDS011;8434;47.990;7.880;2024-03-23T01:48:12;2.20;;;1.90;;
16640;SDS011;8434;47.990;7.880;2024-03-23T01:50:56;3.00;;;1.60;;
16640;SDS011;8434;47.990;7.880;2024-03-23T01:53:42;3.17;;;2.23;;
16640;SDS011;8434;47.990;7.880;2024-03-23T01:56:26;3.87;;;1.70;;
16640;SDS011;8434;47.990;7.880;2024-03-23T01:59:13;3.20;;;1.60;;
16640;SDS011;8434;47.990;7.880;2024-03-23T02:01:57;1.97;;;1.60;;
16640;SDS011;8434;47.990;7.880;2024-03-23T02:04:43;2.13;;;1.60;;
16640;SDS011;8434;47.990;7.880;2024-03-23T02:07:27;1.90;;;1.70;;
16640;SDS011;8434;47.990;7.880;2024-03-23T02:10:12;7.07;;;1.60;;
16640;SDS011;8434;47.990;7.880;2024-03-23T02:12:57;3.13;;;1.50;;
16640;SDS011;8434;47.990;7.880;2024-03-23T02:15:44;4.17;;;1.90;;
16640;SDS011;8434;47.990;7.880;2024-03-23T02:18:29;2.63;;;1.80;;
16640;SDS011;8434;47.990;7.880;2024-03-23T02:21:15;2.23;;;1.83;;
16640;SDS011;8434;47.990;7.880;2024-03-23T02:24:01;2.93;;;1.73;;
16640;SDS011;8434;47.990;7.880;2024-03-23T02:26:46;2.50;;;1.73;;
16640;SDS011;8434;47.990;7.880;2024-03-23T02:29:32;4.27;;;2.20;;
16640;SDS011;8434;47.990;7.880;2024-03-23T02:32:17;5.10;;;2.43;;
16640;SDS011;8434;47.990;7.880;2024-03-23T02:35:02;3.23;;;1.97;;
16640;SDS011;8434;47.990;7.880;2024-03-23T02:37:48;3.80;;;2.00;;
16640;SDS011;8434;47.990;7.880;2024-03-23T02:40:34;1.83;;;1.43;;
16640;SDS011;8434;47.990;7.880;2024-03-23T02:43:21;1.70;;;1.57;;
16640;SDS011;8434;47.990;7.880;2024-03-23T02:46:05;4.40;;;2.57;;
16640;SDS011;8434;47.990;7.880;2024-03-23T02:48:51;1.87;;;1.70;;
16640;SDS011;8434;47.990;7.880;2024-03-23T02:51:35;7.13;;;2.63;;
16640;SDS011;8434;47.990;7.880;2024-03-23T02:54:21;3.10;;;1.70;;
16640;SDS011;8434;47.990;7.880;2024-03-23T02:57:07;3.47;;;2.50;;
16640;SDS011;8434;47.990;7.880;2024-03-23T02:59:52;2.30;;;2.00;;
16640;SDS011;8434;47.990;7.880;2024-03-23T03:02:37;2.00;;;1.80;;
16640;SDS011;8434;47.990;7.880;2024-03-23T03:05:22;2.33;;;2.13;;
16640;SDS011;8434;47.990;7.880;2024-03-23T03:08:06;2.93;;;1.90;;
16640;SDS011;8434;47.990;7.880;2024-03-23T03:10:52;3.30;;;1.80;;
16640;SDS011;8434;47.990;7.880;2024-03-23T03:13:38;1.80;;;1.53;;
16640;SDS011;8434;47.990;7.880;2024-03-23T03:16:23;2.90;;;1.90;;
16640;SDS011;8434;47.990;7.880;2024-03-23T03:19:07;2.37;;;2.00;;
16640;SDS011;8434;47.990;7.880;2024-03-23T03:21:54;3.57;;;2.30;;
16640;SDS011;8434;47.990;7.880;2024-03-23T03:24:38;3.43;;;1.90;;
16640;SDS011;8434;47.990;7.880;2024-03-23T03:27:24;2.87;;;1.70;;
16640;SDS011;8434;47.990;7.880;2024-03-23T03:30:10;3.20;;;1.97;;
16640;SDS011;8434;47.990;7.880;2024-03-23T03:32:56;2.87;;;1.87;;
16640;SDS011;8434;47.990;7.880;2024-03-23T03:35:40;4.13;;;1.90;;
16640;SDS011;8434;47.990;7.880;2024-03-23T03:38:27;2.17;;;1.83;;
16640;SDS011;8434;47.990;7.880;2024-03-23T03:41:12;2.70;;;1.80;;
16640;SDS011;8434;47.990;7.880;2024-03-23T03:43:57;3.73;;;2.13;;
16640;SDS011;8434;47.990;7.880;2024-03-23T03:46:46;3.77;;;2.00;;
16640;SDS011;8434;47.990;7.880;2024-03-23T03:49:32;4.00;;;1.90;;
16640;SDS011;8434;47.990;7.880;2024-03-23T03:52:16;3.33;;;1.83;;
16640;SDS011;8434;47.990;7.880;2024-03-23T03:55:02;3.97;;;2.23;;
16640;SDS011;8434;47.990;7.880;2024-03-23T03:57:46;4.97;;;2.23;;
16640;SDS011;8434;47.990;7.880;2024-03-23T04:00:31;4.77;;;2.30;;
16640;SDS011;8434;47.990;7.880;2024-03-23T04:03:17;5.13;;;2.43;;
16640;SDS011;8434;47.990;7.880;2024-03-23T04:06:03;3.90;;;2.10;;
16640;SDS011;8434;47.990;7.880;2024-03-23T04:08:47;4.90;;;2.43;;
16640;SDS011;8434;47.990;7.880;2024-03-23T04:11:33;4.27;;;2.30;;
16640;SDS011;8434;47.990;7.880;2024-03-23T04:14:17;4.23;;;2.60;;
16640;SDS011;8434;47.990;7.880;2024-03-23T04:17:03;2.80;;;2.20;;
16640;SDS011;8434;47.990;7.880;2024-03-23T04:19:49;3.57;;;2.20;;
16640;SDS011;8434;47.990;7.880;2024-03-23T04:22:36;4.27;;;2.07;;
16640;SDS011;8434;47.990;7.880;2024-03-23T04:25:20;5.57;;;2.00;;
16640;SDS011;8434;47.990;7.880;2024-03-23T04:28:05;6.80;;;3.00;;
16640;SDS011;8434;47.990;7.880;2024-03-23T04:30:50;2.40;;;2.10;;
16640;SDS011;8434;47.990;7.880;2024-03-23T04:33:36;4.60;;;2.50;;
16640;SDS011;8434;47.990;7.880;2024-03-23T04:36:22;2.93;;;2.60;;
16640;SDS011;8434;47.990;7.880;2024-03-23T04:39:07;4.17;;;2.67;;
16640;SDS011;8434;47.990;7.880;2024-03-23T04:41:53;5.80;;;2.60;;
16640;SDS011;8434;47.990;7.880;2024-03-23T04:44:38;3.60;;;2.40;;
16640;SDS011;8434;47.990;7.880;2024-03-23T04:47:24;3.30;;;2.80;;
16640;SDS011;8434;47.990;7.880;2024-03-23T04:50:10;3.40;;;2.33;;
16640;SDS011;8434;47.990;7.880;2024-03-23T04:52:57;3.53;;;2.87;;
16640;SDS011;8434;47.990;7.880;2024-03-23T04:55:43;5.47;;;2.30;;
16640;SDS011;8434;47.990;7.880;2024-03-23T04:58:27;6.47;;;3.20;;
16640;SDS011;8434;47.990;7.880;2024-03-23T05:01:13;3.47;;;2.83;;
16640;SDS011;8434;47.990;7.880;2024-03-23T05:03:57;3.80;;;2.63;;
16640;SDS011;8434;47.990;7.880;2024-03-23T05:06:43;7.77;;;4.00;;
16640;SDS011;8434;47.990;7.880;2024-03-23T05:09:29;4.77;;;3.30;;
16640;SDS011;8434;47.990;7.880;2024-03-23T05:12:15;5.27;;;3.30;;
16640;SDS011;8434;47.990;7.880;2024-03-23T05:15:00;4.43;;;3.13;;
16640;SDS011;8434;47.990;7.880;2024-03-23T05:17:44;3.50;;;3.20;;
16640;SDS011;8434;47.990;7.880;2024-03-23T05:20:30;6.10;;;3.40;;
16640;SDS011;8434;47.990;7.880;2024-03-23T05:23:14;4.07;;;3.20;;
16640;SDS011;8434;47.990;7.880;2024-03-23T05:26:01;4.07;;;3.27;;
16640;SDS011;8434;47.990;7.880;2024-03-23T05:28:45;4.73;;;3.70;;
16640;SDS011;8434;47.990;7.880;2024-03-23T05:31:31;6.10;;;3.60;;
16640;SDS011;8434;47.990;7.880;2024-03-23T05:34:16;4.07;;;3.50;;
16640;SDS011;8434;47.990;7.880;2024-03-23T05:37:00;4.90;;;3.70;;
16640;SDS011;8434;47.990;7.880;2024-03-23T05:39:46;4.40;;;2.87;;
16640;SDS011;8434;47.990;7.880;2024-03-23T05:42:33;3.80;;;3.10;;
16640;SDS011;8434;47.990;7.880;2024-03-23T05:45:18;3.90;;;3.17;;
16640;SDS011;8434;47.990;7.880;2024-03-23T05:48:03;4.60;;;2.70;;
16640;SDS011;8434;47.990;7.880;2024-03-23T05:50:49;3.17;;;2.77;;
16640;SDS011;8434;47.990;7.880;2024-03-23T05:53:34;7.00;;;3.40;;
16640;SDS011;8434;47.990;7.880;2024-03-23T05:56:19;3.33;;;2.80;;
16640;SDS011;8434;47.990;7.880;2024-03-23T05:59:05;4.87;;;3.20;;
16640;SDS011;8434;47.990;7.880;2024-03-23T06:01:51;4.17;;;3.23;;
16640;SDS011;8434;47.990;7.880;2024-03-23T06:04:36;3.77;;;3.00;;
16640;SDS011;8434;47.990;7.880;2024-03-23T06:07:21;4.23;;;3.53;;
16640;SDS011;8434;47.990;7.880;2024-03-23T06:10:06;7.03;;;3.60;;
16640;SDS011;8434;47.990;7.880;2024-03-23T06:12:51;3.40;;;2.90;;
16640;SDS011;8434;47.990;7.880;2024-03-23T06:15:37;3.83;;;3.00;;
16640;SDS011;8434;47.990;7.880;2024-03-23T06:18:22;4.90;;;3.70;;
16640;SDS011;8434;47.990;7.880;2024-03-23T06:21:12;3.43;;;2.30;;
16640;SDS011;8434;47.990;7.880;2024-03-23T06:23:58;3.57;;;2.60;;
16640;SDS011;8434;47.990;7.880;2024-03-23T06:26:42;5.47;;;3.07;;
16640;SDS011;8434;47.990;7.880;2024-03-23T06:29:28;4.40;;;3.10;;
16640;SDS011;8434;47.990;7.880;2024-03-23T06:32:14;3.03;;;2.33;;
16640;SDS011;8434;47.990;7.880;2024-03-23T06:34:59;1.90;;;1.27;;
16640;SDS011;8434;47.990;7.880;2024-03-23T06:37:44;2.73;;;1.13;;
16640;SDS011;8434;47.990;7.880;2024-03-23T06:40:29;1.20;;;0.90;;
16640;SDS011;8434;47.990;7.880;2024-03-23T06:43:13;0.90;;;0.53;;
16640;SDS011;8434;47.990;7.880;2024-03-23T06:45:59;0.50;;;0.50;;
16640;SDS011;8434;47.990;7.880;2024-03-23T06:48:45;0.50;;;0.50;;
16640;SDS011;8434;47.990;7.880;2024-03-23T06:51:31;0.30;;;0.30;;
16640;SDS011;8434;47.990;7.880;2024-03-23T06:54:16;0.30;;;0.30;;
16640;SDS011;8434;47.990;7.880;2024-03-23T06:57:01;0.53;;;0.37;;
16640;SDS011;8434;47.990;7.880;2024-03-23T06:59:47;0.37;;;0.30;;
16640;SDS011;8434;47.990;7.880;2024-03-23T07:02:33;3.40;;;0.40;;
16640;SDS011;8434;47.990;7.880;2024-03-23T07:05:20;0.53;;;0.53;;
16640;SDS011;8434;47.990;7.880;2024-03-23T07:08:05;0.60;;;0.43;;
16640;SDS011;8434;47.990;7.880;2024-03-23T07:10:49;0.60;;;0.50;;
16640;SDS011;8434;47.990;7.880;2024-03-23T07:13:35;1.03;;;0.60;;
16640;SDS011;8434;47.990;7.880;2024-03-23T07:16:19;0.37;;;0.37;;
16640;SDS011;8434;47.990;7.880;2024-03-23T07:19:05;0.37;;;0.37;;
16640;SDS011;8434;47.990;7.880;2024-03-23T07:21:50;0.60;;;0.30;;
16640;SDS011;8434;47.990;7.880;2024-03-23T07:24:36;0.30;;;0.30;;
16640;SDS011;8434;47.990;7.880;2024-03-23T07:27:20;0.40;;;0.40;;
16640;SDS011;8434;47.990;7.880;2024-03-23T07:30:08;0.60;;;0.30;;
16640;SDS011;8434;47.990;7.880;2024-03-23T07:32:52;0.30;;;0.30;;
16640;SDS011;8434;47.990;7.880;2024-03-23T07:35:38;0.40;;;0.40;;
16640;SDS011;8434;47.990;7.880;2024-03-23T07:38:25;0.93;;;0.50;;
16640;SDS011;8434;47.990;7.880;2024-03-23T07:41:11;0.43;;;0.30;;
16640;SDS011;8434;47.990;7.880;2024-03-23T07:44:01;0.73;;;0.30;;
16640;SDS011;8434;47.990;7.880;2024-03-23T07:46:45;0.83;;;0.30;;
16640;SDS011;8434;47.990;7.880;2024-03-23T07:49:31;0.20;;;0.20;;
16640;SDS011;8434;47.990;7.880;2024-03-23T07:52:15;0.30;;;0.20;;
16640;SDS011;8434;47.990;7.880;2024-03-23T07:55:02;0.10;;;0.10;;
16640;SDS011;8434;47.990;7.880;2024-03-23T07:57:48;0.80;;;0.17;;
16640;SDS011;8434;47.990;7.880;2024-03-23T08:00:33;0.23;;;0.23;;
16640;SDS011;8434;47.990;7.880;2024-03-23T08:03:18;0.40;;;0.40;;
16640;SDS011;8434;47.990;7.880;2024-03-23T08:06:09;1.03;;;0.33;;
16640;SDS011;8434;47.990;7.880;2024-03-23T08:08:55;1.03;;;0.30;;
16640;SDS011;8434;47.990;7.880;2024-03-23T08:11:45;0.40;;;0.40;;
16640;SDS011;8434;47.990;7.880;2024-03-23T08:14:30;0.90;;;0.60;;
16640;SDS011;8434;47.990;7.880;2024-03-23T08:17:15;2.63;;;1.47;;
16640;SDS011;8434;47.990;7.880;2024-03-23T08:20:00;2.73;;;0.77;;
16640;SDS011;8434;47.990;7.880;2024-03-23T08:22:44;1.90;;;1.10;;
16640;SDS011;8434;47.990;7.880;2024-03-23T08:25:30;1.83;;;0.87;;
16640;SDS011;8434;47.990;7.880;2024-03-23T08:28:16;4.40;;;1.33;;
16640;SDS011;8434;47.990;7.880;2024-03-23T08:31:02;1.93;;;1.13;;
16640;SDS011;8434;47.990;7.880;2024-03-23T08:33:47;2.93;;;1.13;;
16640;SDS011;8434;47.990;7.880;2024-03-23T08:36:32;1.80;;;1.10;;
16640;SDS011;8434;47.990;7.880;2024-03-23T08:39:16;5.97;;;2.00;;
16640;SDS011;8434;47.990;7.880;2024-03-23T08:42:02;2.23;;;1.20;;
16640;SDS011;8434;47.990;7.880;2024-03-23T08:44:48;2.67;;;1.40;;
16640;SDS011;8434;47.990;7.880;2024-03-23T08:47:34;3.73;;;1.10;;
16640;SDS011;8434;47.990;7.880;2024-03-23T08:50:19;4.57;;;1.40;;
16640;SDS011;8434;47.990;7.880;2024-03-23T08:53:05;1.83;;;1.53;;
16640;SDS011;8434;47.990;7.880;2024-03-23T08:55:52;4.10;;;1.70;;
16640;SDS011;8434;47.990;7.880;2024-03-23T08:58:38;2.80;;;1.50;;
16640;SDS011;8434;47.990;7.880;2024-03-23T09:01:24;3.80;;;1.33;;
16640;SDS011;8434;47.990;7.880;2024-03-23T09:04:09;3.23;;;1.50;;
16640;SDS011;8434;47.990;7.880;2024-03-23T09:06:53;4.10;;;1.60;;
16640;SDS011;8434;47.990;7.880;2024-03-23T09:09:39;6.13;;;2.53;;
16640;SDS011;8434;47.990;7.880;2024-03-23T09:12:23;4.30;;;1.50;;
16640;SDS011;8434;47.990;7.880;2024-03-23T09:15:09;4.70;;;2.03;;
16640;SDS011;8434;47.990;7.880;2024-03-23T09:17:54;8.93;;;2.50;;
16640;SDS011;8434;47.990;7.880;2024-03-23T09:20:40;5.53;;;1.87;;
16640;SDS011;8434;47.990;7.880;2024-03-23T09:23:26;5.33;;;1.80;;
16640;SDS011;8434;47.990;7.880;2024-03-23T09:26:10;4.80;;;1.90;;
16640;SDS011;8434;47.990;7.880;2024-03-23T09:28:56;2.10;;;1.47;;
16640;SDS011;8434;47.990;7.880;2024-03-23T09:31:40;4.87;;;1.70;;
16640;SDS011;8434;47.990;7.880;2024-03-23T09:34:27;4.63;;;1.33;;
16640;SDS011;8434;47.990;7.880;2024-03-23T09:37:11;2.80;;;1.37;;
16640;SDS011;8434;47.990;7.880;2024-03-23T09:39:56;4.03;;;1.70;;
16640;SDS011;8434;47.990;7.880;2024-03-23T09:42:41;5.17;;;2.13;;
16640;SDS011;8434;47.990;7.880;2024-03-23T09:45:30;3.27;;;1.73;;
16640;SDS011;8434;47.990;7.880;2024-03-23T09:48:15;6.00;;;1.33;;
16640;SDS011;8434;47.990;7.880;2024-03-23T09:51:02;3.03;;;1.40;;
16640;SDS011;8434;47.990;7.880;2024-03-23T09:53:49;2.83;;;1.20;;
16640;SDS011;8434;47.990;7.880;2024-03-23T09:56:36;6.57;;;1.33;;
16640;SDS011;8434;47.990;7.880;2024-03-23T09:59:21;3.83;;;1.47;;
16640;SDS011;8434;47.990;7.880;2024-03-23T10:02:06;4.17;;;1.43;;
16640;SDS011;8434;47.990;7.880;2024-03-23T10:04:50;2.97;;;1.20;;
16640;SDS011;8434;47.990;7.880;2024-03-23T10:07:37;2.37;;;1.00;;
16640;SDS011;8434;47.990;7.880;2024-03-23T10:10:22;3.40;;;1.30;;
16640;SDS011;8434;47.990;7.880;2024-03-23T10:13:10;3.00;;;1.40;;
16640;SDS011;8434;47.990;7.880;2024-03-23T10:15:55;3.30;;;1.23;;
16640;SDS011;8434;47.990;7.880;2024-03-23T10:18:40;5.60;;;1.23;;
16640;SDS011;8434;47.990;7.880;2024-03-23T10:21:25;3.67;;;1.20;;
16640;SDS011;8434;47.990;7.880;2024-03-23T10:24:12;2.07;;;1.03;;
16640;SDS011;8434;47.990;7.880;2024-03-23T10:26:57;2.47;;;1.13;;
16640;SDS011;8434;47.990;7.880;2024-03-23T10:29:42;3.93;;;1.20;;
16640;SDS011;8434;47.990;7.880;2024-03-23T10:32:28;4.17;;;1.30;;
16640;SDS011;8434;47.990;7.880;2024-03-23T10:35:14;6.53;;;1.77;;
16640;SDS011;8434;47.990;7.880;2024-03-23T10:37:58;5.40;;;1.40;;
16640;SDS011;8434;47.990;7.880;2024-03-23T10:40:45;3.30;;;1.53;;
16640;SDS011;8434;47.990;7.880;2024-03-23T10:43:29;3.53;;;1.10;;
16640;SDS011;8434;47.990;7.880;2024-03-23T10:46:15;2.87;;;1.00;;
16640;SDS011;8434;47.990;7.880;2024-03-23T10:49:01;2.40;;;1.20;;
16640;SDS011;8434;47.990;7.880;2024-03-23T10:51:45;3.77;;;1.00;;
16640;SDS011;8434;47.990;7.880;2024-03-23T10:54:31;2.97;;;1.13;;
16640;SDS011;8434;47.990;7.880;2024-03-23T10:57:17;0.93;;;0.47;;
16640;SDS011;8434;47.990;7.880;2024-03-23T11:00:03;3.57;;;1.63;;
16640;SDS011;8434;47.990;7.880;2024-03-23T11:02:49;4.10;;;0.87;;
16640;SDS011;8434;47.990;7.880;2024-03-23T11:05:34;3.13;;;1.17;;
16640;SDS011;8434;47.990;7.880;2024-03-23T11:08:29;2.60;;;0.97;;
16640;SDS011;8434;47.990;7.880;2024-03-23T11:11:14;2.43;;;1.37;;
16640;SDS011;8434;47.990;7.880;2024-03-23T11:14:01;4.13;;;1.20;;
16640;SDS011;8434;47.990;7.880;2024-03-23T11:17:08;1.73;;;0.93;;
16640;SDS011;8434;47.990;7.880;2024-03-23T11:19:53;2.23;;;1.00;;
16640;SDS011;8434;47.990;7.880;2024-03-23T11:22:42;1.97;;;0.80;;
16640;SDS011;8434;47.990;7.880;2024-03-23T11:25:28;1.67;;;0.90;;
16640;SDS011;8434;47.990;7.880;2024-03-23T11:28:13;1.00;;;0.70;;
16640;SDS011;8434;47.990;7.880;2024-03-23T11:31:01;2.50;;;1.20;;
16640;SDS011;8434;47.990;7.880;2024-03-23T11:33:45;2.73;;;1.07;;
16640;SDS011;8434;47.990;7.880;2024-03-23T11:36:31;1.40;;;0.70;;
16640;SDS011;8434;47.990;7.880;2024-03-23T11:39:15;1.33;;;0.93;;
16640;SDS011;8434;47.990;7.880;2024-03-23T11:42:01;2.30;;;0.70;;
16640;SDS011;8434;47.990;7.880;2024-03-23T11:44:47;2.90;;;0.80;;
16640;SDS011;8434;47.990;7.880;2024-03-23T11:47:34;1.93;;;1.10;;
16640;SDS011;8434;47.990;7.880;2024-03-23T11:50:19;2.03;;;0.70;;
16640;SDS011;8434;47.990;7.880;2024-03-23T11:53:08;1.73;;;0.87;;
16640;SDS011;8434;47.990;7.880;2024-03-23T11:55:53;1.57;;;0.80;;
16640;SDS011;8434;47.990;7.880;2024-03-23T11:58:39;1.47;;;0.83;;
16640;SDS011;8434;47.990;7.880;2024-03-23T12:01:23;0.73;;;0.70;;
16640;SDS011;8434;47.990;7.880;2024-03-23T12:04:10;1.43;;;1.10;;
16640;SDS011;8434;47.990;7.880;2024-03-23T12:07:10;0.80;;;0.60;;
16640;SDS011;8434;47.990;7.880;2024-03-23T12:10:02;1.40;;;0.50;;
16640;SDS011;8434;47.990;7.880;2024-03-23T12:12:57;0.60;;;0.60;;
16640;SDS011;8434;47.990;7.880;2024-03-23T12:15:43;1.40;;;0.80;;
16640;SDS011;8434;47.990;7.880;2024-03-23T12:18:28;1.57;;;0.90;;
16640;SDS011;8434;47.990;7.880;2024-03-23T12:21:15;2.10;;;0.63;;
16640;SDS011;8434;47.990;7.880;2024-03-23T12:24:00;3.13;;;1.07;;
16640;SDS011;8434;47.990;7.880;2024-03-23T12:26:46;3.63;;;0.90;;
16640;SDS011;8434;47.990;7.880;2024-03-23T12:29:34;3.63;;;1.27;;
16640;SDS011;8434;47.990;7.880;2024-03-23T12:32:19;4.20;;;1.50;;
16640;SDS011;8434;47.990;7.880;2024-03-23T12:35:04;1.93;;;0.93;;
16640;SDS011;8434;47.990;7.880;2024-03-23T12:37:51;3.90;;;2.03;;
16640;SDS011;8434;47.990;7.880;2024-03-23T12:40:35;4.20;;;1.70;;
16640;SDS011;8434;47.990;7.880;2024-03-23T12:43:21;2.37;;;0.87;;
16640;SDS011;8434;47.990;7.880;2024-03-23T12:46:05;2.90;;;1.47;;
16640;SDS011;8434;47.990;7.880;2024-03-23T12:48:52;2.80;;;1.10;;
16640;SDS011;8434;47.990;7.880;2024-03-23T12:51:37;2.77;;;1.20;;
16640;SDS011;8434;47.990;7.880;2024-03-23T12:54:24;4.17;;;1.50;;
16640;SDS011;8434;47.990;7.880;2024-03-23T12:57:09;2.50;;;1.27;;
16640;SDS011;8434;47.990;7.880;2024-03-23T12:59:54;5.07;;;1.30;;
16640;SDS011;8434;47.990;7.880;2024-03-23T13:02:39;4.53;;;1.30;;
16640;SDS011;8434;47.990;7.880;2024-03-23T13:05:24;3.60;;;1.53;;
16640;SDS011;8434;47.990;7.880;2024-03-23T13:08:09;6.10;;;2.17;;
16640;SDS011;8434;47.990;7.880;2024-03-23T13:10:56;2.17;;;1.27;;
16640;SDS011;8434;47.990;7.880;2024-03-23T13:13:40;3.00;;;1.13;;
16640;SDS011;8434;47.990;7.880;2024-03-23T13:16:26;5.37;;;2.00;;
16640;SDS011;8434;47.990;7.880;2024-03-23T13:19:11;3.63;;;1.20;;
16640;SDS011;8434;47.990;7.880;2024-03-23T13:21:56;3.87;;;1.20;;
16640;SDS011;8434;47.990;7.880;2024-03-23T13:24:41;3.83;;;1.20;;
16640;SDS011;8434;47.990;7.880;2024-03-23T13:27:28;4.10;;;1.10;;
16640;SDS011;8434;47.990;7.880;2024-03-23T13:30:12;3.50;;;0.80;;
16640;SDS011;8434;47.990;7.880;2024-03-23T13:32:58;2.17;;;1.30;;
16640;SDS011;8434;47.990;7.880;2024-03-23T13:35:48;4.03;;;1.00;;
16640;SDS011;8434;47.990;7.880;2024-03-23T13:38:34;3.73;;;1.10;;
16640;SDS011;8434;47.990;7.880;2024-03-23T13:41:19;2.47;;;0.70;;
16640;SDS011;8434;47.990;7.880;2024-03-23T13:44:05;3.73;;;1.50;;
16640;SDS011;8434;47.990;7.880;2024-03-23T13:46:50;3.67;;;1.00;;
16640;SDS011;8434;47.990;7.880;2024-03-23T13:49:35;3.80;;;1.10;;
16640;SDS011;8434;47.990;7.880;2024-03-23T13:52:20;2.47;;;0.93;;
16640;SDS011;8434;47.990;7.880;2024-03-23T13:55:07;3.33;;;1.20;;
16640;SDS011;8434;47.990;7.880;2024-03-23T13:57:52;4.20;;;1.70;;
16640;SDS011;8434;47.990;7.880;2024-03-23T14:00:39;2.90;;;0.90;;
16640;SDS011;8434;47.990;7.880;2024-03-23T14:03:24;4.50;;;1.03;;
16640;SDS011;8434;47.990;7.880;2024-03-23T14:06:10;1.30;;;0.77;;
16640;SDS011;8434;47.990;7.880;2024-03-23T14:08:54;2.30;;;0.70;;
16640;SDS011;8434;47.990;7.880;2024-03-23T14:11:40;2.40;;;0.97;;
16640;SDS011;8434;47.990;7.880;2024-03-23T14:14:25;4.80;;;1.07;;
16640;SDS011;8434;47.990;7.880;2024-03-23T14:17:12;1.90;;;0.70;;
16640;SDS011;8434;47.990;7.880;2024-03-23T14:19:58;2.63;;;0.80;;
16640;SDS011;8434;47.990;7.880;2024-03-23T14:22:45;1.17;;;0.70;;
16640;SDS011;8434;47.990;7.880;2024-03-23T14:25:29;2.37;;;0.70;;
16640;SDS011;8434;47.990;7.880;2024-03-23T14:28:15;2.13;;;0.80;;
16640;SDS011;8434;47.990;7.880;2024-03-23T14:30:59;3.97;;;0.83;;
16640;SDS011;8434;47.990;7.880;2024-03-23T14:33:46;1.03;;;0.70;;
16640;SDS011;8434;47.990;7.880;2024-03-23T14:36:32;2.10;;;0.60;;
16640;SDS011;8434;47.990;7.880;2024-03-23T14:39:17;0.90;;;0.70;;
16640;SDS011;8434;47.990;7.880;2024-03-23T14:42:02;2.67;;;0.80;;
16640;SDS011;8434;47.990;7.880;2024-03-23T14:44:47;3.43;;;0.83;;
16640;SDS011;8434;47.990;7.880;2024-03-23T14:47:32;1.90;;;0.80;;
16640;SDS011;8434;47.990;7.880;2024-03-23T14:50:18;1.73;;;0.90;;
16640;SDS011;8434;47.990;7.880;2024-03-23T14:53:03;1.77;;;0.67;;
16640;SDS011;8434;47.990;7.880;2024-03-23T14:55:48;3.47;;;0.80;;
16640;SDS011;8434;47.990;7.880;2024-03-23T14:58:33;3.53;;;0.60;;
16640;SDS011;8434;47.990;7.880;2024-03-23T15:01:19;0.63;;;0.50;;
16640;SDS011;8434;47.990;7.880;2024-03-23T15:04:05;1.07;;;0.73;;
16640;SDS011;8434;47.990;7.880;2024-03-23T15:06:51;2.07;;;0.67;;
16640;SDS011;8434;47.990;7.880;2024-03-23T15:09:37;2.03;;;0.70;;
16640;SDS011;8434;47.990;7.880;2024-03-23T15:12:21;2.13;;;0.63;;
16640;SDS011;8434;47.990;7.880;2024-03-23T15:15:07;3.67;;;0.70;;
16640;SDS011;8434;47.990;7.880;2024-03-23T15:17:51;0.50;;;0.47;;
16640;SDS011;8434;47.990;7.880;2024-03-23T15:20:37;1.83;;;0.60;;
16640;SDS011;8434;47.990;7.880;2024-03-23T15:23:23;1.30;;;0.70;;
16640;SDS011;8434;47.990;7.880;2024-03-23T15:26:09;1.13;;;0.50;;
16640;SDS011;8434;47.990;7.880;2024-03-23T15:28:53;1.97;;;0.57;;
16640;SDS011;8434;47.990;7.880;2024-03-23T15:31:55;2.43;;;0.90;;
16640;SDS011;8434;47.990;7.880;2024-03-23T15:34:40;0.93;;;0.53;;
16640;SDS011;8434;47.990;7.880;2024-03-23T15:37:26;0.83;;;0.53;;
16640;SDS011;8434;47.990;7.880;2024-03-23T15:40:12;2.23;;;0.60;;
16640;SDS011;8434;47.990;7.880;2024-03-23T15:42:58;1.97;;;0.97;;
16640;SDS011;8434;47.990;7.880;2024-03-23T15:45:42;3.90;;;0.90;;
16640;SDS011;8434;47.990;7.880;2024-03-23T15:48:27;3.03;;;0.90;;
16640;SDS011;8434;47.990;7.880;2024-03-23T15:51:12;2.13;;;0.60;;
16640;SDS011;8434;47.990;7.880;2024-03-23T15:53:57;1.97;;;0.70;;
16640;SDS011;8434;47.990;7.880;2024-03-23T15:56:43;1.93;;;0.70;;
16640;SDS011;8434;47.990;7.880;2024-03-23T15:59:28;2.43;;;0.80;;
16640;SDS011;8434;47.990;7.880;2024-03-23T16:02:13;0.83;;;0.50;;
16640;SDS011;8434;47.990;7.880;2024-03-23T16:04:58;2.37;;;0.80;;
16640;SDS011;8434;47.990;7.880;2024-03-23T16:07:46;2.10;;;0.77;;
16640;SDS011;8434;47.990;7.880;2024-03-23T16:10:32;0.53;;;0.53;;
16640;SDS011;8434;47.990;7.880;2024-03-23T16:13:18;1.33;;;0.73;;
16640;SDS011;8434;47.990;7.880;2024-03-23T16:16:04;1.23;;;0.50;;
16640;SDS011;8434;47.990;7.880;2024-03-23T16:18:50;1.83;;;0.90;;
16640;SDS011;8434;47.990;7.880;2024-03-23T16:21:36;1.73;;;0.53;;
16640;SDS011;8434;47.990;7.880;2024-03-23T16:24:20;0.93;;;0.57;;
16640;SDS011;8434;47.990;7.880;2024-03-23T16:27:06;1.20;;;0.77;;
16640;SDS011;8434;47.990;7.880;2024-03-23T16:29:52;1.67;;;1.10;;
16640;SDS011;8434;47.990;7.880;2024-03-23T16:32:37;1.90;;;0.83;;
16640;SDS011;8434;47.990;7.880;2024-03-23T16:35:22;2.43;;;1.43;;
16640;SDS011;8434;47.990;7.880;2024-03-23T16:38:09;1.47;;;0.90;;
16640;SDS011;8434;47.990;7.880;2024-03-23T16:40:54;1.53;;;1.20;;
16640;SDS011;8434;47.990;7.880;2024-03-23T16:43:39;3.57;;;0.80;;
16640;SDS011;8434;47.990;7.880;2024-03-23T16:46:25;1.17;;;0.80;;
16640;SDS011;8434;47.990;7.880;2024-03-23T16:49:10;0.67;;;0.57;;
16640;SDS011;8434;47.990;7.880;2024-03-23T16:51:54;3.00;;;0.60;;
16640;SDS011;8434;47.990;7.880;2024-03-23T16:54:40;0.97;;;0.60;;
16640;SDS011;8434;47.990;7.880;2024-03-23T16:57:25;1.23;;;0.37;;
16640;SDS011;8434;47.990;7.880;2024-03-23T17:00:10;0.57;;;0.53;;
16640;SDS011;8434;47.990;7.880;2024-03-23T17:02:59;1.20;;;0.53;;
16640;SDS011;8434;47.990;7.880;2024-03-23T17:05:43;1.37;;;0.50;;
16640;SDS011;8434;47.990;7.880;2024-03-23T17:08:29;0.50;;;0.40;;
16640;SDS011;8434;47.990;7.880;2024-03-23T17:11:13;1.20;;;0.30;;
16640;SDS011;8434;47.990;7.880;2024-03-23T17:13:58;2.97;;;1.27;;
16640;SDS011;8434;47.990;7.880;2024-03-23T17:16:44;1.17;;;0.60;;
16640;SDS011;8434;47.990;7.880;2024-03-23T17:19:32;1.10;;;1.00;;
16640;SDS011;8434;47.990;7.880;2024-03-23T17:22:17;0.60;;;0.50;;
16640;SDS011;8434;47.990;7.880;2024-03-23T17:25:02;0.60;;;0.60;;
16640;SDS011;8434;47.990;7.880;2024-03-23T17:27:48;4.27;;;0.70;;
16640;SDS011;8434;47.990;7.880;2024-03-23T17:30:32;1.40;;;0.60;;
16640;SDS011;8434;47.990;7.880;2024-03-23T17:33:17;1.37;;;0.80;;
16640;SDS011;8434;47.990;7.880;2024-03-23T17:36:03;1.80;;;0.73;;
16640;SDS011;8434;47.990;7.880;2024-03-23T17:38:49;1.83;;;0.80;;
16640;SDS011;8434;47.990;7.880;2024-03-23T17:41:33;0.60;;;0.60;;
16640;SDS011;8434;47.990;7.880;2024-03-23T17:44:19;3.00;;;0.60;;